Terminal Aerodrome Forecast
Issued by NWS

Home | Current Version | Previous Version | Text Only | Print | Product List | Glossary Off
Versions: 1 2 3 4 5 6 7 8 9 10 11 12 13 14 15 16 17 18 19 20

000
FTUS43 KDVN 231400 AAC
TAFBRL
TAF AMD
KBRL 231441Z 2315/2412 VRB03KT P6SM SCT015 OVC150
     FM231600 13007KT P6SM SCT020 BKN200
     FM240700 12005KT 1SM BR SCT100=

USA.gov is the U.S. government's official web portal to all federal, state and local government web resources and services.